createdAt,value
2018-09-18T00:00:27.354Z,997.97
2018-09-18T00:01:34.604Z,997.87
2018-09-18T00:02:32.336Z,997.91
2018-09-18T00:03:31.068Z,997.89
2018-09-18T00:04:30.925Z,997.89
2018-09-18T00:05:29.019Z,997.89
2018-09-18T00:06:23.793Z,997.92
2018-09-18T00:07:24.581Z,997.92
2018-09-18T00:08:24.035Z,997.95
2018-09-18T00:09:29.398Z,997.89
2018-09-18T00:10:32.106Z,997.88
2018-09-18T00:11:29.859Z,997.87
2018-09-18T00:12:27.917Z,997.86
2018-09-18T00:13:26.101Z,997.81
2018-09-18T00:14:27.488Z,997.8
2018-09-18T00:15:26.442Z,997.77
2018-09-18T00:16:25.753Z,997.8
2018-09-18T00:17:45.907Z,997.83
2018-09-18T00:18:45.563Z,997.78
2018-09-18T00:19:44.292Z,997.74
2018-09-18T00:20:42.185Z,997.81
2018-09-18T00:21:41.257Z,997.71
2018-09-18T00:22:39.836Z,997.71
2018-09-18T00:23:40.676Z,997.77
2018-09-18T00:24:39.349Z,997.78
2018-09-18T00:25:40.009Z,997.77
2018-09-18T00:26:55.423Z,997.78
2018-09-18T00:28:09.946Z,997.73
2018-09-18T00:29:10.706Z,997.71
2018-09-18T00:29:40.564Z,997.67
2018-09-18T00:30:43.521Z,997.64
2018-09-18T00:31:41.216Z,997.73
2018-09-18T00:32:39.348Z,997.67
2018-09-18T00:33:40.915Z,997.7
2018-09-18T00:34:38.872Z,997.61
2018-09-18T00:35:44.119Z,997.62
2018-09-18T00:36:40.895Z,997.64
2018-09-18T00:37:42.176Z,997.55
2018-09-18T00:38:55.846Z,997.64
2018-09-18T00:39:51.088Z,997.67
2018-09-18T00:40:52.185Z,997.59
2018-09-18T00:41:50.762Z,997.65
2018-09-18T00:42:52.227Z,997.61
2018-09-18T00:43:50.427Z,997.55
2018-09-18T00:44:48.740Z,997.58
2018-09-18T00:45:49.508Z,997.56
2018-09-18T00:46:51.659Z,997.53
2018-09-18T00:47:49.742Z,997.55
2018-09-18T00:48:59.441Z,997.58
2018-09-18T00:49:56.059Z,997.58
2018-09-18T00:51:00.995Z,997.55
2018-09-18T00:51:59.611Z,997.55
2018-09-18T00:53:00.221Z,997.62
2018-09-18T00:54:00.407Z,997.59
2018-09-18T00:55:11.839Z,997.59
2018-09-18T00:56:15.520Z,997.56
2018-09-18T00:57:11.976Z,997.49
2018-09-18T00:58:16.036Z,997.58
2018-09-18T00:59:19.174Z,997.53
2018-09-18T01:00:17.193Z,997.53
2018-09-18T01:01:16.349Z,997.59
2018-09-18T01:02:15.104Z,997.52
2018-09-18T01:03:11.376Z,997.5
2018-09-18T01:04:09.014Z,997.5
2018-09-18T01:05:07.575Z,997.61
2018-09-18T01:06:10.629Z,997.47
2018-09-18T01:07:11.157Z,997.53
2018-09-18T01:08:14.079Z,997.52
2018-09-18T01:09:09.090Z,997.53
2018-09-18T01:10:23.223Z,997.49
2018-09-18T01:11:23.232Z,997.44
2018-09-18T01:12:21.639Z,997.44
2018-09-18T01:13:21.132Z,997.38
2018-09-18T01:14:23.471Z,997.47
2018-09-18T01:15:21.856Z,997.43
2018-09-18T01:16:21.928Z,997.47
2018-09-18T01:17:23.811Z,997.53
2018-09-18T01:18:28.219Z,997.41
2018-09-18T01:19:29.957Z,997.44
2018-09-18T01:20:28.188Z,997.43
2018-09-18T01:21:26.210Z,997.3
2018-09-18T01:22:50.950Z,997.44
2018-09-18T01:23:56.835Z,997.37
2018-09-18T01:24:54.936Z,997.39
2018-09-18T01:25:56.330Z,997.37
2018-09-18T01:26:56.741Z,997.46
2018-09-18T01:27:59.070Z,997.42
2018-09-18T01:29:01.850Z,997.43
2018-09-18T01:30:08.244Z,997.33
2018-09-18T01:31:10.448Z,997.34
2018-09-18T01:32:09.492Z,997.4
2018-09-18T01:33:09.591Z,997.37
2018-09-18T01:34:21.873Z,997.34
2018-09-18T01:35:18.520Z,997.34
2018-09-18T01:36:22.431Z,997.39
2018-09-18T01:37:21.164Z,997.36
2018-09-18T01:38:20.037Z,997.28
2018-09-18T01:39:21.854Z,997.39
2018-09-18T01:40:20.423Z,997.34
2018-09-18T01:41:15.608Z,997.25
2018-09-18T01:42:21.627Z,997.3
2018-09-18T01:43:19.370Z,997.18
2018-09-18T01:44:32.699Z,997.27
2018-09-18T01:45:34.507Z,997.27
2018-09-18T01:46:33.073Z,997.24
2018-09-18T01:47:38.094Z,997.28
2018-09-18T01:48:38.040Z,997.22
2018-09-18T01:49:32.591Z,997.25
2018-09-18T01:50:32.922Z,997.33
2018-09-18T01:51:33.678Z,997.28
2018-09-18T01:52:36.036Z,997.16
2018-09-18T01:53:33.697Z,997.27
2018-09-18T01:54:33.242Z,997.16
2018-09-18T01:55:45.327Z,997.24
2018-09-18T01:56:45.121Z,997.21
2018-09-18T01:57:48.476Z,997.16
2018-09-18T01:58:49.312Z,997.13
2018-09-18T01:59:49.546Z,997.21
2018-09-18T02:00:56.569Z,997.16
2018-09-18T02:02:02.368Z,997.16
2018-09-18T02:03:01.131Z,997.07
2018-09-18T02:04:01.589Z,997.16
2018-09-18T02:04:59.436Z,997.16
2018-09-18T02:05:59.297Z,997.06
2018-09-18T02:06:56.936Z,997.16
2018-09-18T02:08:12.251Z,997.13
2018-09-18T02:09:14.347Z,997.09
2018-09-18T02:10:16.737Z,997.12
2018-09-18T02:11:15.460Z,997.1
2018-09-18T02:12:14.558Z,997.06
2018-09-18T02:13:13.942Z,997.04
2018-09-18T02:14:12.103Z,996.99
2018-09-18T02:15:11.873Z,997.03
2018-09-18T02:16:17.060Z,997.07
2018-09-18T02:17:15.475Z,997.07
2018-09-18T02:18:11.236Z,997.09
2018-09-18T02:19:16.775Z,997.09
2018-09-18T02:20:33.424Z,997
2018-09-18T02:21:27.620Z,996.96
2018-09-18T02:22:26.812Z,997.06
2018-09-18T02:23:32.163Z,997.04
2018-09-18T02:24:30.532Z,997.09
2018-09-18T02:25:31.518Z,997.05
2018-09-18T02:26:32.053Z,996.93
2018-09-18T02:27:29.373Z,996.94
2018-09-18T02:28:29.600Z,997.05
2018-09-18T02:29:34.506Z,996.99
2018-09-18T02:30:33.763Z,997.07
2018-09-18T02:31:34.849Z,996.97
2018-09-18T02:32:37.509Z,996.97
2018-09-18T02:33:38.689Z,997.03
2018-09-18T02:34:52.995Z,996.96
2018-09-18T02:35:50.119Z,996.94
2018-09-18T02:36:48.531Z,997
2018-09-18T02:37:46.878Z,996.96
2018-09-18T02:38:46.236Z,996.94
2018-09-18T02:39:45.039Z,996.93
2018-09-18T02:40:52.836Z,997.02
2018-09-18T02:41:50.697Z,997.02
2018-09-18T02:42:50.524Z,996.96
2018-09-18T02:43:49.172Z,996.94
2018-09-18T02:44:46.956Z,996.94
2018-09-18T02:45:45.100Z,997.03
2018-09-18T02:46:42.888Z,996.99
2018-09-18T02:48:00.400Z,997.02
2018-09-18T02:48:56.623Z,996.91
2018-09-18T02:49:56.286Z,997.03
2018-09-18T02:50:55.984Z,997.09
2018-09-18T02:51:55.435Z,997
2018-09-18T02:52:59.474Z,996.96
2018-09-18T02:54:00.699Z,997.02
2018-09-18T02:55:02.885Z,996.94
2018-09-18T02:56:08.282Z,996.97
2018-09-18T02:57:06.245Z,996.96
2018-09-18T02:58:13.332Z,996.99
2018-09-18T02:59:32.427Z,997.02
2018-09-18T03:00:31.985Z,996.94
2018-09-18T03:01:31.363Z,996.93
2018-09-18T03:02:33.527Z,996.99
2018-09-18T03:03:31.635Z,997.02
2018-09-18T03:04:37.835Z,997.02
2018-09-18T03:05:37.978Z,996.9
2018-09-18T03:06:40.800Z,997.02
2018-09-18T03:07:42.119Z,996.9
2018-09-18T03:08:43.252Z,996.91
2018-09-18T03:09:38.726Z,996.93
2018-09-18T03:10:43.064Z,996.88
2018-09-18T03:11:57.769Z,996.87
2018-09-18T03:12:55.223Z,996.93
2018-09-18T03:13:59.325Z,996.93
2018-09-18T03:15:00.999Z,996.82
2018-09-18T03:16:00.485Z,996.88
2018-09-18T03:17:00.023Z,996.87
2018-09-18T03:18:08.139Z,996.9
2018-09-18T03:19:08.824Z,996.81
2018-09-18T03:20:13.543Z,996.84
2018-09-18T03:21:14.551Z,996.78
2018-09-18T03:22:13.024Z,996.78
2018-09-18T03:23:10.003Z,996.85
2018-09-18T03:24:29.763Z,996.78
2018-09-18T03:25:23.905Z,996.75
2018-09-18T03:26:24.581Z,996.81
2018-09-18T03:27:23.316Z,996.81
2018-09-18T03:28:26.194Z,996.82
2018-09-18T03:29:27.221Z,996.81
2018-09-18T03:30:23.841Z,996.81
2018-09-18T03:31:25.272Z,996.82
2018-09-18T03:32:23.593Z,996.81
2018-09-18T03:33:22.121Z,996.78
2018-09-18T03:34:47.839Z,996.72
2018-09-18T03:35:43.311Z,996.78
2018-09-18T03:36:43.816Z,996.81
2018-09-18T03:37:45.275Z,996.81
2018-09-18T03:38:47.587Z,996.75
2018-09-18T03:39:50.936Z,996.68
2018-09-18T03:40:50.698Z,996.72
2018-09-18T03:41:52.180Z,996.77
2018-09-18T03:42:52.413Z,996.78
2018-09-18T03:43:50.779Z,996.75
2018-09-18T03:44:45.216Z,996.71
2018-09-18T03:45:58.984Z,996.75
2018-09-18T03:46:57.944Z,996.66
2018-09-18T03:47:56.877Z,996.54
2018-09-18T03:48:54.676Z,996.68
2018-09-18T03:49:52.234Z,996.69
2018-09-18T03:50:54.187Z,996.62
2018-09-18T03:52:00.411Z,996.62
2018-09-18T03:53:06.780Z,996.6
2018-09-18T03:54:05.516Z,996.62
2018-09-18T03:55:03.607Z,996.6
2018-09-18T03:55:59.836Z,996.62
2018-09-18T03:57:12.041Z,996.56
2018-09-18T03:58:15.048Z,996.59
2018-09-18T03:59:12.767Z,996.54
2018-09-18T04:00:13.161Z,996.56
2018-09-18T04:01:11.678Z,996.54
2018-09-18T04:02:09.838Z,996.51
2018-09-18T04:03:11.694Z,996.53
2018-09-18T04:04:09.440Z,996.5
2018-09-18T04:05:09.909Z,996.5
2018-09-18T04:06:07.681Z,996.6
2018-09-18T04:07:21.436Z,996.46
2018-09-18T04:08:16.092Z,996.46
2018-09-18T04:09:27.768Z,996.51
2018-09-18T04:10:26.977Z,996.47
2018-09-18T04:11:26.964Z,996.46
2018-09-18T04:12:24.533Z,996.48
2018-09-18T04:13:25.216Z,996.51
2018-09-18T04:14:28.464Z,996.47
2018-09-18T04:15:26.506Z,996.46
2018-09-18T04:16:24.578Z,996.43
2018-09-18T04:17:19.027Z,996.48
2018-09-18T04:18:30.888Z,996.39
2018-09-18T04:19:27.154Z,996.45
2018-09-18T04:20:29.690Z,996.4
2018-09-18T04:21:31.059Z,996.42
2018-09-18T04:22:34.380Z,996.39
2018-09-18T04:23:33.981Z,996.35
2018-09-18T04:24:38.820Z,996.38
2018-09-18T04:25:38.943Z,996.33
2018-09-18T04:26:44.706Z,996.36
2018-09-18T04:27:46.128Z,996.35
2018-09-18T04:28:48.576Z,996.42
2018-09-18T04:29:52.749Z,996.41
2018-09-18T04:31:05.327Z,996.32
2018-09-18T04:32:04.476Z,996.29
2018-09-18T04:33:03.737Z,996.36
2018-09-18T04:34:01.352Z,996.29
2018-09-18T04:35:00.756Z,996.24
2018-09-18T04:36:01.987Z,996.29
2018-09-18T04:36:59.462Z,996.3
2018-09-18T04:37:59.837Z,996.33
2018-09-18T04:39:02.639Z,996.24
2018-09-18T04:40:02.369Z,996.2
2018-09-18T04:41:01.727Z,996.29
2018-09-18T04:42:13.637Z,996.15
2018-09-18T04:43:10.746Z,996.2
2018-09-18T04:44:11.243Z,996.17
2018-09-18T04:45:12.252Z,996.24
2018-09-18T04:46:10.857Z,996.2
2018-09-18T04:47:08.151Z,996.2
2018-09-18T04:48:10.072Z,996.15
2018-09-18T04:49:09.884Z,996.18
2018-09-18T04:50:08.608Z,996.24
2018-09-18T04:51:10.466Z,996.11
2018-09-18T04:52:08.892Z,996.24
2018-09-18T04:53:20.886Z,996.11
2018-09-18T04:54:18.720Z,996.21
2018-09-18T04:55:16.765Z,996.14
2018-09-18T04:56:14.978Z,996.18
2018-09-18T04:57:25.284Z,996.08
2018-09-18T04:58:24.853Z,996.11
2018-09-18T04:59:22.560Z,996.17
2018-09-18T05:00:19.084Z,996.15
2018-09-18T05:01:25.158Z,996.24
2018-09-18T05:02:22.843Z,996.18
2018-09-18T05:03:18.650Z,996.14
2018-09-18T05:04:39.723Z,996.14
2018-09-18T05:05:38.275Z,996.1
2018-09-18T05:06:43.500Z,996.2
2018-09-18T05:07:39.381Z,996.12
2018-09-18T05:08:40.576Z,996.15
2018-09-18T05:09:39.436Z,996.12
2018-09-18T05:10:37.868Z,996.12
2018-09-18T05:11:36.168Z,996.07
2018-09-18T05:12:34.160Z,996.11
2018-09-18T05:13:32.014Z,996.14
2018-09-18T05:14:44.344Z,996.17
2018-09-18T05:15:39.785Z,996.17
2018-09-18T05:16:43.296Z,996.05
2018-09-18T05:17:40.924Z,996.14
2018-09-18T05:18:38.709Z,996.11
2018-09-18T05:19:38.739Z,996.24
2018-09-18T05:20:46.007Z,996.26
2018-09-18T05:21:44.308Z,996.2
2018-09-18T05:22:42.980Z,996.17
2018-09-18T05:23:39.877Z,996.26
2018-09-18T05:24:50.765Z,996.29
2018-09-18T05:25:53.324Z,996.29
2018-09-18T05:26:51.992Z,996.17
2018-09-18T05:27:50.825Z,996.27
2018-09-18T05:28:55.005Z,996.21
2018-09-18T05:29:56.351Z,996.24
2018-09-18T05:31:02.825Z,996.17
2018-09-18T05:32:00.348Z,996.26
2018-09-18T05:33:04.445Z,996.29
2018-09-18T05:34:02.540Z,996.18
2018-09-18T05:35:00.103Z,996.26
2018-09-18T05:35:57.312Z,996.23
2018-09-18T05:37:02.449Z,996.27
2018-09-18T05:37:56.920Z,996.26
2018-09-18T05:39:01.343Z,996.29
2018-09-18T05:39:56.042Z,996.27
2018-09-18T05:40:53.376Z,996.24
2018-09-18T05:42:09.235Z,996.2
2018-09-18T05:43:12.235Z,996.23
2018-09-18T05:44:20.145Z,996.23
2018-09-18T05:45:18.652Z,996.23
2018-09-18T05:46:17.172Z,996.14
2018-09-18T05:47:12.109Z,996.17
2018-09-18T05:48:22.610Z,996.14
2018-09-18T05:49:20.988Z,996.3
2018-09-18T05:50:18.858Z,996.2
2018-09-18T05:51:16.690Z,996.17
2018-09-18T05:52:23.079Z,996.24
2018-09-18T05:53:17.916Z,996.24
2018-09-18T05:54:30.592Z,996.27
2018-09-18T05:55:25.175Z,996.27
2018-09-18T05:56:25.250Z,996.3
2018-09-18T05:57:25.803Z,996.2
2018-09-18T05:58:27.342Z,996.27
2018-09-18T05:59:26.626Z,996.26
2018-09-18T06:00:26.041Z,996.23
2018-09-18T06:01:24.492Z,996.23
2018-09-18T06:02:23.167Z,996.2
2018-09-18T06:03:26.566Z,996.21
2018-09-18T06:04:27.684Z,996.23
2018-09-18T06:05:27.725Z,996.17
2018-09-18T06:06:23.799Z,996.27
2018-09-18T06:07:25.443Z,996.27
2018-09-18T06:08:37.947Z,996.23
2018-09-18T06:09:34.760Z,996.19
2018-09-18T06:10:37.223Z,996.14
2018-09-18T06:11:37.469Z,996.2
2018-09-18T06:12:37.210Z,996.23
2018-09-18T06:13:34.992Z,996.2
2018-09-18T06:14:33.516Z,996.13
2018-09-18T06:15:35.828Z,996.2
2018-09-18T06:16:34.251Z,996.23
2018-09-18T06:17:32.720Z,996.23
2018-09-18T06:18:30.664Z,996.26
2018-09-18T06:19:45.766Z,996.21
2018-09-18T06:20:43.487Z,996.2
2018-09-18T06:21:43.675Z,996.24
2018-09-18T06:22:44.145Z,996.23
2018-09-18T06:23:43.056Z,996.24
2018-09-18T06:24:46.268Z,996.3
2018-09-18T06:25:45.466Z,996.24
2018-09-18T06:26:43.282Z,996.18
2018-09-18T06:27:43.879Z,996.27
2018-09-18T06:28:50.220Z,996.3
2018-09-18T06:29:47.916Z,996.3
2018-09-18T06:30:59.913Z,996.23
2018-09-18T06:31:58.113Z,996.26
2018-09-18T06:32:56.847Z,996.3
2018-09-18T06:33:55.877Z,996.24
2018-09-18T06:34:57.322Z,996.24
2018-09-18T06:35:55.849Z,996.33
2018-09-18T06:36:55.647Z,996.35
2018-09-18T06:37:53.267Z,996.32
2018-09-18T06:38:49.974Z,996.32
2018-09-18T06:39:52.341Z,996.35
2018-09-18T06:41:10.131Z,996.39
2018-09-18T06:42:04.650Z,996.29
2018-09-18T06:43:02.880Z,996.33
2018-09-18T06:44:00.980Z,996.37
2018-09-18T06:44:59.466Z,996.33
2018-09-18T06:45:57.611Z,996.39
2018-09-18T06:46:57.210Z,996.34
2018-09-18T06:47:56.931Z,996.34
2018-09-18T06:48:54.978Z,996.36
2018-09-18T06:49:54.549Z,996.31
2018-09-18T06:50:50.182Z,996.37
2018-09-18T06:51:49.226Z,996.36
2018-09-18T06:53:07.300Z,996.3
2018-09-18T06:54:05.193Z,996.3
2018-09-18T06:55:03.879Z,996.31
2018-09-18T06:56:02.518Z,996.36
2018-09-18T06:57:00.692Z,996.27
2018-09-18T06:57:56.650Z,996.31
2018-09-18T06:58:57.943Z,996.28
2018-09-18T06:59:56.130Z,996.28
2018-09-18T07:00:56.975Z,996.27
2018-09-18T07:02:01.859Z,996.27
2018-09-18T07:03:16.178Z,996.27
2018-09-18T07:04:11.882Z,996.27
2018-09-18T07:05:10.595Z,996.34
2018-09-18T07:06:10.928Z,996.22
2018-09-18T07:07:10.607Z,996.28
2018-09-18T07:08:13.219Z,996.27
2018-09-18T07:09:17.341Z,996.25
2018-09-18T07:10:18.505Z,996.3
2018-09-18T07:11:19.223Z,996.24
2018-09-18T07:12:23.829Z,996.25
2018-09-18T07:13:31.143Z,996.21
2018-09-18T07:13:42.939Z,996.25
2018-09-18T07:14:41.697Z,996.25
2018-09-18T07:15:40.081Z,996.22
2018-09-18T07:16:43.092Z,996.29
2018-09-18T07:17:58.305Z,996.16
2018-09-18T07:19:04.922Z,996.26
2018-09-18T07:20:05.072Z,996.29
2018-09-18T07:21:03.675Z,996.19
2018-09-18T07:22:06.721Z,996.28
2018-09-18T07:23:05.664Z,996.32
2018-09-18T07:24:05.996Z,996.37
2018-09-18T07:25:05.157Z,996.31
2018-09-18T07:26:03.960Z,996.29
2018-09-18T07:27:01.372Z,996.32
2018-09-18T07:28:15.738Z,996.26
2018-09-18T07:29:11.102Z,996.25
2018-09-18T07:30:22.725Z,996.37
2018-09-18T07:31:21.412Z,996.25
2018-09-18T07:32:19.373Z,996.29
2018-09-18T07:33:19.580Z,996.2
2018-09-18T07:34:21.149Z,996.31
2018-09-18T07:35:18.927Z,996.29
2018-09-18T07:36:18.796Z,996.31
2018-09-18T07:37:16.945Z,996.28
2018-09-18T07:38:17.945Z,996.23
2018-09-18T07:39:12.961Z,996.31
2018-09-18T07:40:24.776Z,996.31
2018-09-18T07:41:19.245Z,996.22
2018-09-18T07:42:17.474Z,996.28
2018-09-18T07:43:15.187Z,996.25
2018-09-18T07:44:21.775Z,996.41
2018-09-18T07:45:23.939Z,996.32
2018-09-18T07:46:22.876Z,996.26
2018-09-18T07:47:23.057Z,996.31
2018-09-18T07:48:20.661Z,996.22
2018-09-18T07:49:20.798Z,996.29
2018-09-18T07:50:20.721Z,996.22
2018-09-18T07:51:22.410Z,996.25
2018-09-18T07:52:22.644Z,996.2
2018-09-18T07:53:31.338Z,996.25
2018-09-18T07:54:30.040Z,996.17
2018-09-18T07:55:45.726Z,996.23
2018-09-18T07:56:40.469Z,996.22
2018-09-18T07:57:40.089Z,996.23
2018-09-18T07:58:42.736Z,996.23
2018-09-18T07:59:40.506Z,996.2
2018-09-18T08:00:41.241Z,996.2
2018-09-18T08:01:41.212Z,996.22
2018-09-18T08:02:39.271Z,996.2
2018-09-18T08:03:42.110Z,996.16
2018-09-18T08:04:40.954Z,996.25
2018-09-18T08:05:38.736Z,996.17
2018-09-18T08:06:38.903Z,996.23
2018-09-18T08:07:34.058Z,996.35
2018-09-18T08:08:51.830Z,996.19
2018-09-18T08:09:47.170Z,996.33
2018-09-18T08:10:47.265Z,996.13
2018-09-18T08:11:45.854Z,996.24
2018-09-18T08:12:44.400Z,996.13
2018-09-18T08:13:42.457Z,996.18
2018-09-18T08:14:40.314Z,996.16
2018-09-18T08:15:39.002Z,996.21
2018-09-18T08:16:36.949Z,996.14
2018-09-18T08:17:34.859Z,996.2
2018-09-18T08:18:49.521Z,996.14
2018-09-18T08:19:45.413Z,996.2
2018-09-18T08:20:50.575Z,996.18
2018-09-18T08:21:48.792Z,996.17
2018-09-18T08:22:50.411Z,996.18
2018-09-18T08:23:57.353Z,996.2
2018-09-18T08:24:55.250Z,996.27
2018-09-18T08:25:59.695Z,996.27
2018-09-18T08:26:57.373Z,996.18
2018-09-18T08:27:57.739Z,996.17
2018-09-18T08:29:01.016Z,996.23
2018-09-18T08:29:59.873Z,996.24
2018-09-18T08:30:58.776Z,996.15
2018-09-18T08:31:55.212Z,996.18
2018-09-18T08:32:59.019Z,996.09
2018-09-18T08:34:00.022Z,996.14
2018-09-18T08:34:54.736Z,996.21
2018-09-18T08:36:06.674Z,996.2
2018-09-18T08:37:01.818Z,996.2
2018-09-18T08:38:01.433Z,996.17
2018-09-18T08:38:59.763Z,996.26
2018-09-18T08:40:00.260Z,996.21
2018-09-18T08:40:59.615Z,996.26
2018-09-18T08:42:05.991Z,996.23
2018-09-18T08:43:04.547Z,996.15
2018-09-18T08:44:06.445Z,996.36
2018-09-18T08:45:05.216Z,996.33
2018-09-18T08:46:05.989Z,996.23
2018-09-18T08:47:26.835Z,996.29
2018-09-18T08:48:20.939Z,996.32
2018-09-18T08:49:24.577Z,996.29
2018-09-18T08:50:26.692Z,996.32
2018-09-18T08:51:23.847Z,996.29
2018-09-18T08:52:21.458Z,996.27
2018-09-18T08:53:20.179Z,996.31
2018-09-18T08:54:18.085Z,996.27
2018-09-18T08:55:16.337Z,996.28
2018-09-18T08:56:14.229Z,996.3
2018-09-18T08:57:14.946Z,996.27
2018-09-18T08:58:13.061Z,996.31
2018-09-18T08:59:10.713Z,996.31
2018-09-18T09:00:05.189Z,996.29
2018-09-18T09:01:05.334Z,996.29
2018-09-18T09:02:18.522Z,996.34
2018-09-18T09:03:18.562Z,996.29
2018-09-18T09:04:16.556Z,996.33
2018-09-18T09:05:14.372Z,996.29
2018-09-18T09:06:12.786Z,996.42
2018-09-18T09:07:14.070Z,996.36
2018-09-18T09:08:13.314Z,996.33
2018-09-18T09:09:12.251Z,996.33
2018-09-18T09:10:13.471Z,996.32
2018-09-18T09:11:16.451Z,996.4
2018-09-18T09:12:29.503Z,996.37
2018-09-18T09:13:25.472Z,996.33
2018-09-18T09:14:28.114Z,996.34
2018-09-18T09:15:26.331Z,996.39
2018-09-18T09:16:25.313Z,996.36
2018-09-18T09:17:22.930Z,996.3
2018-09-18T09:18:21.306Z,996.37
2018-09-18T09:19:19.135Z,996.21
2018-09-18T09:20:27.848Z,996.47
2018-09-18T09:21:26.069Z,996.33
2018-09-18T09:22:24.072Z,996.27
2018-09-18T09:23:22.544Z,996.34
2018-09-18T09:24:23.922Z,996.34
2018-09-18T09:25:24.120Z,996.36
2018-09-18T09:26:38.132Z,996.39
2018-09-18T09:27:32.371Z,996.35
2018-09-18T09:28:30.756Z,996.39
2018-09-18T09:29:28.751Z,996.42
2018-09-18T09:30:24.778Z,996.3
2018-09-18T09:31:27.481Z,996.27
2018-09-18T09:32:27.442Z,996.39
2018-09-18T09:33:26.101Z,996.37
2018-09-18T09:34:23.657Z,996.32
2018-09-18T09:35:25.973Z,996.26
2018-09-18T09:36:21.800Z,996.35
2018-09-18T09:37:35.080Z,996.32
2018-09-18T09:38:32.801Z,996.36
2018-09-18T09:39:30.796Z,996.26
2018-09-18T09:40:28.602Z,996.32
2018-09-18T09:41:26.320Z,996.33
2018-09-18T09:42:24.728Z,996.43
2018-09-18T09:43:23.882Z,996.29
2018-09-18T09:44:19.686Z,996.26
2018-09-18T09:45:32.334Z,996.33
2018-09-18T09:46:30.873Z,996.3
2018-09-18T09:47:29.255Z,996.24
2018-09-18T09:48:44.794Z,996.24
2018-09-18T09:49:41.462Z,996.3
2018-09-18T09:50:39.167Z,996.33
2018-09-18T09:51:39.090Z,996.45
2018-09-18T09:52:53.577Z,996.35
2018-09-18T09:53:51.341Z,996.23
2018-09-18T09:54:50.191Z,996.35
2018-09-18T09:55:47.285Z,996.36
2018-09-18T09:56:47.947Z,996.36
2018-09-18T09:57:46.812Z,996.36
2018-09-18T09:58:48.641Z,996.36
2018-09-18T09:59:53.158Z,996.38
2018-09-18T10:00:48.111Z,996.35
2018-09-18T10:01:48.476Z,996.33
2018-09-18T10:02:51.749Z,996.32
2018-09-18T10:03:55.996Z,996.32
2018-09-18T10:05:09.670Z,996.35
2018-09-18T10:06:07.653Z,996.38
2018-09-18T10:07:06.920Z,996.42
2018-09-18T10:08:05.289Z,996.44
2018-09-18T10:09:07.124Z,996.38
2018-09-18T10:10:06.398Z,996.42
2018-09-18T10:11:11.484Z,996.39
2018-09-18T10:12:11.415Z,996.39
2018-09-18T10:13:10.969Z,996.33
2018-09-18T10:14:05.550Z,996.48
2018-09-18T10:15:05.657Z,996.42
2018-09-18T10:16:05.835Z,996.45
2018-09-18T10:17:00.286Z,996.44
2018-09-18T10:18:00.090Z,996.41
2018-09-18T10:18:58.840Z,996.45
2018-09-18T10:19:57.133Z,996.41
2018-09-18T10:21:09.764Z,996.47
2018-09-18T10:22:05.151Z,996.38
2018-09-18T10:23:03.659Z,996.44
2018-09-18T10:24:01.949Z,996.38
2018-09-18T10:25:01.369Z,996.47
2018-09-18T10:26:00.330Z,996.45
2018-09-18T10:26:58.506Z,996.41
2018-09-18T10:27:58.021Z,996.33
2018-09-18T10:28:53.855Z,996.42
2018-09-18T10:29:55.056Z,996.33
2018-09-18T10:30:57.441Z,996.38
2018-09-18T10:32:00.883Z,996.35
2018-09-18T10:33:15.382Z,996.39
2018-09-18T10:34:10.081Z,996.35
2018-09-18T10:35:08.423Z,996.26
2018-09-18T10:36:06.552Z,996.24
2018-09-18T10:37:07.470Z,996.29
2018-09-18T10:38:07.560Z,996.29
2018-09-18T10:39:06.179Z,996.26
2018-09-18T10:40:08.461Z,996.32
2018-09-18T10:41:06.859Z,996.39
2018-09-18T10:42:05.617Z,996.33
2018-09-18T10:43:00.963Z,996.3
2018-09-18T10:44:12.287Z,996.39
2018-09-18T10:45:17.107Z,996.32
2018-09-18T10:46:15.135Z,996.29
2018-09-18T10:47:13.350Z,996.36
2018-09-18T10:48:12.511Z,996.42
2018-09-18T10:49:19.323Z,996.33
2018-09-18T10:50:18.575Z,996.38
2018-09-18T10:51:18.871Z,996.24
2018-09-18T10:52:16.546Z,996.27
2018-09-18T10:53:14.802Z,996.33
2018-09-18T10:54:14.000Z,996.36
2018-09-18T10:55:35.816Z,996.17
2018-09-18T10:56:24.361Z,996.26
2018-09-18T10:57:27.731Z,996.29
2018-09-18T10:58:29.848Z,996.24
2018-09-18T10:59:28.042Z,996.23
2018-09-18T11:00:27.382Z,996.2
2018-09-18T11:01:25.657Z,996.29
2018-09-18T11:02:23.544Z,996.24
2018-09-18T11:03:21.458Z,996.11
2018-09-18T11:04:23.710Z,996.09
2018-09-18T11:05:24.175Z,996.14
2018-09-18T11:06:24.539Z,996.11
2018-09-18T11:07:24.756Z,996.14
2018-09-18T11:08:38.523Z,996.08
2018-09-18T11:09:34.121Z,996.03
2018-09-18T11:10:32.075Z,996.05
2018-09-18T11:11:30.541Z,996.09
2018-09-18T11:12:29.392Z,996.02
2018-09-18T11:13:33.987Z,996.11
2018-09-18T11:14:31.687Z,996.05
2018-09-18T11:15:29.954Z,995.99
2018-09-18T11:16:27.759Z,996.06
2018-09-18T11:17:27.716Z,996.05
2018-09-18T11:18:28.711Z,996.03
2018-09-18T11:19:27.041Z,996.09
2018-09-18T11:20:21.848Z,995.97
2018-09-18T11:21:34.696Z,995.87
2018-09-18T11:22:32.513Z,995.91
2018-09-18T11:23:30.851Z,995.99
2018-09-18T11:24:29.937Z,995.99
2018-09-18T11:25:34.642Z,995.99
2018-09-18T11:26:38.233Z,996.03
2018-09-18T11:27:36.269Z,995.99
2018-09-18T11:28:37.149Z,995.93
2018-09-18T11:29:47.976Z,995.96
2018-09-18T11:30:46.494Z,996.03
2018-09-18T11:31:49.528Z,996.02
2018-09-18T11:32:49.931Z,995.97
2018-09-18T11:33:47.684Z,995.94
2018-09-18T11:34:43.272Z,995.99
2018-09-18T11:35:58.436Z,996
2018-09-18T11:36:53.416Z,996.05
2018-09-18T11:37:51.753Z,996.02
2018-09-18T11:38:51.262Z,995.97
2018-09-18T11:39:49.724Z,996.02
2018-09-18T11:40:49.668Z,996.02
2018-09-18T11:41:49.104Z,996.08
2018-09-18T11:42:47.912Z,995.88
2018-09-18T11:43:49.600Z,995.96
2018-09-18T11:44:47.220Z,995.96
2018-09-18T11:45:42.368Z,996
2018-09-18T11:46:54.220Z,995.99
2018-09-18T11:47:58.886Z,995.94
2018-09-18T11:48:58.554Z,996.06
2018-09-18T11:49:57.475Z,996.03
2018-09-18T11:50:56.369Z,995.91
2018-09-18T11:51:55.691Z,996.09
2018-09-18T11:52:56.161Z,995.93
2018-09-18T11:53:54.284Z,995.97
2018-09-18T11:54:53.476Z,995.97
2018-09-18T11:55:48.009Z,995.91
2018-09-18T11:57:01.109Z,995.99
2018-09-18T11:57:55.929Z,995.96
2018-09-18T11:58:59.912Z,995.93
2018-09-18T12:00:00.352Z,995.93
2018-09-18T12:00:59.919Z,995.85
2018-09-18T12:01:57.611Z,995.72
2018-09-18T12:02:59.244Z,995.84
2018-09-18T12:04:01.488Z,995.81
2018-09-18T12:05:08.152Z,995.84
2018-09-18T12:06:06.229Z,995.79
2018-09-18T12:07:06.058Z,995.76
2018-09-18T12:08:04.685Z,995.78
2018-09-18T12:09:18.244Z,995.75
2018-09-18T12:10:13.614Z,995.66
2018-09-18T12:11:11.604Z,995.76
2018-09-18T12:12:16.210Z,995.67
2018-09-18T12:13:17.097Z,995.72
2018-09-18T12:14:09.191Z,995.63
2018-09-18T12:15:10.464Z,995.69
2018-09-18T12:16:11.504Z,995.61
2018-09-18T12:17:14.961Z,995.56
2018-09-18T12:18:15.013Z,995.7
2018-09-18T12:19:29.687Z,995.66
2018-09-18T12:20:43.596Z,995.64
2018-09-18T12:21:40.933Z,995.63
2018-09-18T12:22:45.832Z,995.63
2018-09-18T12:23:45.003Z,995.73
2018-09-18T12:24:51.158Z,995.73
2018-09-18T12:25:52.488Z,995.75
2018-09-18T12:26:55.174Z,995.61
2018-09-18T12:27:53.543Z,995.53
2018-09-18T12:28:52.808Z,995.66
2018-09-18T12:29:51.632Z,995.61
2018-09-18T12:30:46.211Z,995.66
2018-09-18T12:32:02.910Z,995.63
2018-09-18T12:32:59.905Z,995.66
2018-09-18T12:33:58.595Z,995.55
2018-09-18T12:35:01.723Z,995.61
2018-09-18T12:36:01.323Z,995.6
2018-09-18T12:36:58.990Z,995.61
2018-09-18T12:38:06.127Z,995.52
2018-09-18T12:39:04.763Z,995.55
2018-09-18T12:40:03.320Z,995.73
2018-09-18T12:41:04.627Z,995.72
2018-09-18T12:42:16.507Z,995.64
2018-09-18T12:43:10.765Z,995.66